sensor_id;sensor_type;location;lat;lon;timestamp;noise_LAeq;noise_LA_min;noise_LA_max;noise_LA01;noise_LA95
72160;Laerm;60045;51.792;10.938;2023-03-01T00:00:37;55.58;26.98;75.59;;
72160;Laerm;60045;51.792;10.938;2023-03-01T00:03:03;33.05;27.80;44.23;;
72160;Laerm;60045;51.792;10.938;2023-03-01T00:05:31;30.34;27.16;39.11;;
72160;Laerm;60045;51.792;10.938;2023-03-01T00:07:57;30.83;27.01;40.57;;
72160;Laerm;60045;51.792;10.938;2023-03-01T00:10:23;48.38;27.05;64.97;;
72160;Laerm;60045;51.792;10.938;2023-03-01T00:12:51;30.98;27.17;44.94;;
72160;Laerm;60045;51.792;10.938;2023-03-01T00:15:18;30.35;27.67;39.55;;
72160;Laerm;60045;51.792;10.938;2023-03-01T00:17:44;28.92;27.28;37.18;;
72160;Laerm;60045;51.792;10.938;2023-03-01T00:20:10;33.24;28.30;44.73;;
72160;Laerm;60045;51.792;10.938;2023-03-01T00:22:38;29.95;27.48;35.59;;
72160;Laerm;60045;51.792;10.938;2023-03-01T00:25:04;31.16;28.00;38.44;;
72160;Laerm;60045;51.792;10.938;2023-03-01T00:27:31;29.27;27.38;46.95;;
72160;Laerm;60045;51.792;10.938;2023-03-01T00:29:57;30.03;27.51;36.77;;
72160;Laerm;60045;51.792;10.938;2023-03-01T00:32:23;29.18;26.97;33.68;;
72160;Laerm;60045;51.792;10.938;2023-03-01T00:34:49;29.62;26.88;33.71;;
72160;Laerm;60045;51.792;10.938;2023-03-01T00:37:21;28.39;26.79;36.77;;
72160;Laerm;60045;51.792;10.938;2023-03-01T00:39:49;28.74;26.67;41.54;;
72160;Laerm;60045;51.792;10.938;2023-03-01T00:42:15;29.75;26.77;41.74;;
72160;Laerm;60045;51.792;10.938;2023-03-01T00:44:42;28.09;26.52;35.79;;
72160;Laerm;60045;51.792;10.938;2023-03-01T00:47:08;28.88;26.74;37.90;;
72160;Laerm;60045;51.792;10.938;2023-03-01T00:49:34;28.10;26.61;32.52;;
72160;Laerm;60045;51.792;10.938;2023-03-01T00:52:00;31.70;26.82;44.52;;
72160;Laerm;60045;51.792;10.938;2023-03-01T00:54:27;28.87;26.98;32.90;;
72160;Laerm;60045;51.792;10.938;2023-03-01T00:56:54;28.55;26.99;35.98;;
72160;Laerm;60045;51.792;10.938;2023-03-01T00:59:20;30.31;27.14;39.10;;
72160;Laerm;60045;51.792;10.938;2023-03-01T01:01:47;30.08;27.17;42.07;;
72160;Laerm;60045;51.792;10.938;2023-03-01T01:04:13;29.81;27.10;44.00;;
72160;Laerm;60045;51.792;10.938;2023-03-01T01:06:41;30.32;27.42;44.27;;
72160;Laerm;60045;51.792;10.938;2023-03-01T01:09:08;32.12;27.71;44.17;;
72160;Laerm;60045;51.792;10.938;2023-03-01T01:11:42;30.71;28.12;44.44;;
72160;Laerm;60045;51.792;10.938;2023-03-01T01:14:10;30.60;27.94;33.90;;
72160;Laerm;60045;51.792;10.938;2023-03-01T01:16:36;29.96;27.53;37.81;;
72160;Laerm;60045;51.792;10.938;2023-03-01T01:19:02;31.76;27.86;39.45;;
72160;Laerm;60045;51.792;10.938;2023-03-01T01:21:28;51.24;28.31;69.77;;
72160;Laerm;60045;51.792;10.938;2023-03-01T01:23:55;30.43;26.98;39.09;;
72160;Laerm;60045;51.792;10.938;2023-03-01T01:26:22;29.60;26.92;35.66;;
72160;Laerm;60045;51.792;10.938;2023-03-01T01:28:49;51.36;27.53;68.78;;
72160;Laerm;60045;51.792;10.938;2023-03-01T01:31:16;32.42;26.91;45.91;;
72160;Laerm;60045;51.792;10.938;2023-03-01T01:33:43;38.17;27.28;56.44;;
72160;Laerm;60045;51.792;10.938;2023-03-01T01:36:09;28.11;26.70;33.14;;
72160;Laerm;60045;51.792;10.938;2023-03-01T01:38:36;29.78;27.13;38.79;;
72160;Laerm;60045;51.792;10.938;2023-03-01T01:41:03;28.77;26.92;34.10;;
72160;Laerm;60045;51.792;10.938;2023-03-01T01:43:30;29.89;26.83;42.22;;
72160;Laerm;60045;51.792;10.938;2023-03-01T01:45:57;54.78;27.09;73.99;;
72160;Laerm;60045;51.792;10.938;2023-03-01T01:48:27;52.67;27.45;71.57;;
72160;Laerm;60045;51.792;10.938;2023-03-01T01:51:06;30.71;27.19;40.55;;
72160;Laerm;60045;51.792;10.938;2023-03-01T01:53:33;29.93;26.98;38.42;;
72160;Laerm;60045;51.792;10.938;2023-03-01T01:56:01;29.12;27.25;41.13;;
72160;Laerm;60045;51.792;10.938;2023-03-01T01:58:28;30.57;27.34;40.49;;
72160;Laerm;60045;51.792;10.938;2023-03-01T02:00:55;30.02;26.88;42.55;;
72160;Laerm;60045;51.792;10.938;2023-03-01T02:03:22;28.64;26.94;36.67;;
72160;Laerm;60045;51.792;10.938;2023-03-01T02:05:55;29.59;27.26;43.10;;
72160;Laerm;60045;51.792;10.938;2023-03-01T02:08:23;32.38;27.85;46.82;;
72160;Laerm;60045;51.792;10.938;2023-03-01T02:10:51;30.23;27.34;43.02;;
72160;Laerm;60045;51.792;10.938;2023-03-01T02:13:17;29.92;27.60;35.42;;
72160;Laerm;60045;51.792;10.938;2023-03-01T02:15:44;29.63;27.79;37.38;;
72160;Laerm;60045;51.792;10.938;2023-03-01T02:18:12;29.83;27.54;36.67;;
72160;Laerm;60045;51.792;10.938;2023-03-01T02:20:40;30.35;27.77;35.06;;
72160;Laerm;60045;51.792;10.938;2023-03-01T02:26:17;30.16;27.32;36.62;;
72160;Laerm;60045;51.792;10.938;2023-03-01T02:28:46;29.37;27.20;37.97;;
72160;Laerm;60045;51.792;10.938;2023-03-01T02:31:14;36.36;27.41;69.66;;
72160;Laerm;60045;51.792;10.938;2023-03-01T02:33:59;31.45;27.30;55.50;;
72160;Laerm;60045;51.792;10.938;2023-03-01T02:36:28;29.52;27.46;34.91;;
72160;Laerm;60045;51.792;10.938;2023-03-01T02:38:56;32.83;27.59;44.40;;
72160;Laerm;60045;51.792;10.938;2023-03-01T02:41:23;30.22;27.65;49.49;;
72160;Laerm;60045;51.792;10.938;2023-03-01T02:43:52;29.72;27.12;35.62;;
72160;Laerm;60045;51.792;10.938;2023-03-01T02:46:19;32.01;28.02;41.51;;
72160;Laerm;60045;51.792;10.938;2023-03-01T02:48:47;33.80;27.69;44.62;;
72160;Laerm;60045;51.792;10.938;2023-03-01T02:53:57;48.12;27.92;65.70;;
72160;Laerm;60045;51.792;10.938;2023-03-01T02:56:24;34.37;28.26;52.34;;
72160;Laerm;60045;51.792;10.938;2023-03-01T02:58:52;49.34;28.40;65.25;;
72160;Laerm;60045;51.792;10.938;2023-03-01T03:01:19;50.69;29.66;67.38;;
72160;Laerm;60045;51.792;10.938;2023-03-01T03:03:45;63.21;29.01;83.35;;
72160;Laerm;60045;51.792;10.938;2023-03-01T03:06:12;33.82;28.61;44.25;;
72160;Laerm;60045;51.792;10.938;2023-03-01T03:08:38;52.41;28.76;71.48;;
72160;Laerm;60045;51.792;10.938;2023-03-01T03:11:04;32.25;28.52;38.93;;
72160;Laerm;60045;51.792;10.938;2023-03-01T03:13:30;50.22;30.48;69.76;;
72160;Laerm;60045;51.792;10.938;2023-03-01T03:15:58;33.05;28.73;42.93;;
72160;Laerm;60045;51.792;10.938;2023-03-01T03:18:24;32.14;28.74;39.41;;
72160;Laerm;60045;51.792;10.938;2023-03-01T03:20:51;32.41;28.55;40.39;;
72160;Laerm;60045;51.792;10.938;2023-03-01T03:23:18;59.49;32.14;75.86;;
72160;Laerm;60045;51.792;10.938;2023-03-01T03:25:45;33.81;29.12;42.51;;
72160;Laerm;60045;51.792;10.938;2023-03-01T03:28:13;30.82;28.02;35.85;;
72160;Laerm;60045;51.792;10.938;2023-03-01T03:30:41;31.92;27.89;55.42;;
72160;Laerm;60045;51.792;10.938;2023-03-01T03:33:09;34.94;28.83;49.78;;
72160;Laerm;60045;51.792;10.938;2023-03-01T03:35:38;58.09;30.90;79.15;;
72160;Laerm;60045;51.792;10.938;2023-03-01T03:38:05;38.72;29.79;58.55;;
72160;Laerm;60045;51.792;10.938;2023-03-01T03:40:35;48.11;29.08;64.39;;
72160;Laerm;60045;51.792;10.938;2023-03-01T03:43:01;48.31;29.07;67.26;;
72160;Laerm;60045;51.792;10.938;2023-03-01T03:45:27;34.36;29.38;41.46;;
72160;Laerm;60045;51.792;10.938;2023-03-01T03:47:54;59.82;32.46;76.56;;
72160;Laerm;60045;51.792;10.938;2023-03-01T03:50:21;56.35;30.07;74.87;;
72160;Laerm;60045;51.792;10.938;2023-03-01T03:52:47;49.42;29.96;66.78;;
72160;Laerm;60045;51.792;10.938;2023-03-01T03:55:14;51.62;30.78;71.94;;
72160;Laerm;60045;51.792;10.938;2023-03-01T03:57:44;34.35;29.68;42.78;;
72160;Laerm;60045;51.792;10.938;2023-03-01T04:00:16;54.17;30.46;72.54;;
72160;Laerm;60045;51.792;10.938;2023-03-01T04:02:43;49.75;30.14;68.79;;
72160;Laerm;60045;51.792;10.938;2023-03-01T04:05:10;59.30;32.40;77.53;;
72160;Laerm;60045;51.792;10.938;2023-03-01T04:07:38;57.75;31.34;76.96;;
72160;Laerm;60045;51.792;10.938;2023-03-01T04:10:05;54.33;30.98;70.11;;
72160;Laerm;60045;51.792;10.938;2023-03-01T04:12:32;54.54;32.53;72.08;;
72160;Laerm;60045;51.792;10.938;2023-03-01T04:14:59;52.60;31.62;72.85;;
72160;Laerm;60045;51.792;10.938;2023-03-01T04:17:25;60.86;33.28;77.68;;
72160;Laerm;60045;51.792;10.938;2023-03-01T04:19:51;59.38;33.36;74.12;;
72160;Laerm;60045;51.792;10.938;2023-03-01T04:22:18;58.22;33.71;74.92;;
72160;Laerm;60045;51.792;10.938;2023-03-01T04:24:45;62.20;34.65;77.40;;
72160;Laerm;60045;51.792;10.938;2023-03-01T04:27:11;55.87;33.40;73.48;;
72160;Laerm;60045;51.792;10.938;2023-03-01T04:29:38;61.05;33.25;80.18;;
72160;Laerm;60045;51.792;10.938;2023-03-01T04:32:04;59.02;33.49;74.28;;
72160;Laerm;60045;51.792;10.938;2023-03-01T04:34:30;57.59;33.56;73.29;;
72160;Laerm;60045;51.792;10.938;2023-03-01T04:36:56;56.88;34.52;71.68;;
72160;Laerm;60045;51.792;10.938;2023-03-01T04:39:22;65.21;35.96;79.74;;
72160;Laerm;60045;51.792;10.938;2023-03-01T04:41:50;57.22;32.96;74.09;;
72160;Laerm;60045;51.792;10.938;2023-03-01T04:44:17;35.71;31.84;41.13;;
72160;Laerm;60045;51.792;10.938;2023-03-01T04:46:44;55.45;33.86;70.48;;
72160;Laerm;60045;51.792;10.938;2023-03-01T04:49:10;36.73;32.40;45.49;;
72160;Laerm;60045;51.792;10.938;2023-03-01T04:51:36;60.50;34.16;76.83;;
72160;Laerm;60045;51.792;10.938;2023-03-01T04:54:03;55.08;35.06;71.29;;
72160;Laerm;60045;51.792;10.938;2023-03-01T04:56:30;63.50;32.53;81.92;;
72160;Laerm;60045;51.792;10.938;2023-03-01T04:58:57;61.34;36.56;75.23;;
72160;Laerm;60045;51.792;10.938;2023-03-01T05:01:25;59.27;35.09;74.09;;
72160;Laerm;60045;51.792;10.938;2023-03-01T05:03:51;59.07;33.42;75.23;;
72160;Laerm;60045;51.792;10.938;2023-03-01T05:06:18;53.42;32.24;71.06;;
72160;Laerm;60045;51.792;10.938;2023-03-01T05:08:45;55.11;35.36;71.70;;
72160;Laerm;60045;51.792;10.938;2023-03-01T05:11:11;58.33;35.72;73.68;;
72160;Laerm;60045;51.792;10.938;2023-03-01T05:13:38;57.93;33.59;75.77;;
72160;Laerm;60045;51.792;10.938;2023-03-01T05:16:06;62.85;35.69;78.98;;
72160;Laerm;60045;51.792;10.938;2023-03-01T05:18:35;58.22;34.35;73.24;;
72160;Laerm;60045;51.792;10.938;2023-03-01T05:21:03;58.76;32.75;74.11;;
72160;Laerm;60045;51.792;10.938;2023-03-01T05:23:31;60.22;35.36;74.14;;
72160;Laerm;60045;51.792;10.938;2023-03-01T05:25:58;57.22;36.13;72.74;;
72160;Laerm;60045;51.792;10.938;2023-03-01T05:28:25;62.73;38.32;77.39;;
72160;Laerm;60045;51.792;10.938;2023-03-01T05:30:51;58.71;39.26;76.35;;
72160;Laerm;60045;51.792;10.938;2023-03-01T05:33:19;64.33;36.69;82.14;;
72160;Laerm;60045;51.792;10.938;2023-03-01T05:35:47;62.87;37.28;74.56;;
72160;Laerm;60045;51.792;10.938;2023-03-01T05:38:14;60.99;37.79;75.44;;
72160;Laerm;60045;51.792;10.938;2023-03-01T05:40:40;64.77;39.88;80.04;;
72160;Laerm;60045;51.792;10.938;2023-03-01T05:43:07;63.32;37.94;79.13;;
72160;Laerm;60045;51.792;10.938;2023-03-01T05:45:35;59.72;36.97;75.98;;
72160;Laerm;60045;51.792;10.938;2023-03-01T05:48:01;62.28;38.30;77.51;;
72160;Laerm;60045;51.792;10.938;2023-03-01T05:50:29;65.04;39.29;81.11;;
72160;Laerm;60045;51.792;10.938;2023-03-01T05:52:57;66.50;37.72;82.31;;
72160;Laerm;60045;51.792;10.938;2023-03-01T05:55:23;55.68;37.24;72.33;;
72160;Laerm;60045;51.792;10.938;2023-03-01T05:57:50;64.06;38.11;78.79;;
72160;Laerm;60045;51.792;10.938;2023-03-01T06:00:17;62.26;38.35;78.23;;
72160;Laerm;60045;51.792;10.938;2023-03-01T06:02:43;62.01;37.41;73.59;;
72160;Laerm;60045;51.792;10.938;2023-03-01T06:05:10;61.94;37.52;78.80;;
72160;Laerm;60045;51.792;10.938;2023-03-01T06:07:38;60.75;38.33;74.05;;
72160;Laerm;60045;51.792;10.938;2023-03-01T06:10:05;62.73;36.19;79.64;;
72160;Laerm;60045;51.792;10.938;2023-03-01T06:12:31;66.79;42.31;81.65;;
72160;Laerm;60045;51.792;10.938;2023-03-01T06:14:58;59.31;38.54;72.43;;
72160;Laerm;60045;51.792;10.938;2023-03-01T06:17:24;57.98;38.33;74.12;;
72160;Laerm;60045;51.792;10.938;2023-03-01T06:19:51;61.72;40.13;77.07;;
72160;Laerm;60045;51.792;10.938;2023-03-01T06:22:17;60.23;37.15;75.19;;
72160;Laerm;60045;51.792;10.938;2023-03-01T06:24:44;63.37;40.18;77.37;;
72160;Laerm;60045;51.792;10.938;2023-03-01T06:27:11;58.64;38.36;74.26;;
72160;Laerm;60045;51.792;10.938;2023-03-01T06:29:37;64.24;39.96;78.35;;
72160;Laerm;60045;51.792;10.938;2023-03-01T06:32:03;58.93;39.11;72.09;;
72160;Laerm;60045;51.792;10.938;2023-03-01T06:34:29;61.78;37.57;76.72;;
72160;Laerm;60045;51.792;10.938;2023-03-01T06:36:56;67.15;41.10;83.29;;
72160;Laerm;60045;51.792;10.938;2023-03-01T06:39:22;62.32;39.79;76.03;;
72160;Laerm;60045;51.792;10.938;2023-03-01T06:41:49;64.95;39.68;79.87;;
72160;Laerm;60045;51.792;10.938;2023-03-01T06:44:16;54.30;37.45;71.74;;
72160;Laerm;60045;51.792;10.938;2023-03-01T06:46:42;66.47;40.15;81.32;;
72160;Laerm;60045;51.792;10.938;2023-03-01T06:49:08;59.72;39.23;73.88;;
72160;Laerm;60045;51.792;10.938;2023-03-01T06:51:35;64.23;40.63;79.72;;
72160;Laerm;60045;51.792;10.938;2023-03-01T06:54:02;59.64;37.61;72.74;;
72160;Laerm;60045;51.792;10.938;2023-03-01T06:56:28;64.21;41.68;80.59;;
72160;Laerm;60045;51.792;10.938;2023-03-01T06:58:55;62.61;40.47;77.39;;
72160;Laerm;60045;51.792;10.938;2023-03-01T07:01:22;64.34;38.80;78.76;;
72160;Laerm;60045;51.792;10.938;2023-03-01T07:03:48;63.99;40.00;81.35;;
72160;Laerm;60045;51.792;10.938;2023-03-01T07:06:14;62.15;37.25;79.79;;
72160;Laerm;60045;51.792;10.938;2023-03-01T07:08:40;63.42;37.52;78.94;;
72160;Laerm;60045;51.792;10.938;2023-03-01T07:11:06;55.50;36.82;71.84;;
72160;Laerm;60045;51.792;10.938;2023-03-01T07:13:33;62.32;43.35;78.90;;
72160;Laerm;60045;51.792;10.938;2023-03-01T07:16:00;61.78;44.86;74.55;;
72160;Laerm;60045;51.792;10.938;2023-03-01T07:18:26;62.17;47.11;67.95;;
72160;Laerm;60045;51.792;10.938;2023-03-01T07:20:53;63.75;42.78;74.53;;
72160;Laerm;60045;51.792;10.938;2023-03-01T07:23:19;63.33;43.67;73.05;;
72160;Laerm;60045;51.792;10.938;2023-03-01T07:25:50;63.97;45.15;75.86;;
72160;Laerm;60045;51.792;10.938;2023-03-01T07:28:17;63.52;43.94;76.90;;
72160;Laerm;60045;51.792;10.938;2023-03-01T07:30:43;62.23;44.11;74.66;;
72160;Laerm;60045;51.792;10.938;2023-03-01T07:33:11;64.25;45.98;79.50;;
72160;Laerm;60045;51.792;10.938;2023-03-01T07:35:37;61.59;45.08;73.66;;
72160;Laerm;60045;51.792;10.938;2023-03-01T07:38:03;68.94;44.77;85.42;;
72160;Laerm;60045;51.792;10.938;2023-03-01T07:40:29;60.76;42.23;74.79;;
72160;Laerm;60045;51.792;10.938;2023-03-01T07:42:55;60.07;37.98;75.54;;
72160;Laerm;60045;51.792;10.938;2023-03-01T07:45:22;62.13;38.08;76.41;;
72160;Laerm;60045;51.792;10.938;2023-03-01T07:47:50;56.12;37.14;73.32;;
72160;Laerm;60045;51.792;10.938;2023-03-01T07:50:17;58.51;36.60;73.47;;
72160;Laerm;60045;51.792;10.938;2023-03-01T07:52:44;61.06;41.22;74.45;;
72160;Laerm;60045;51.792;10.938;2023-03-01T07:55:10;64.72;44.32;80.42;;
72160;Laerm;60045;51.792;10.938;2023-03-01T07:57:37;59.06;39.21;73.89;;
72160;Laerm;60045;51.792;10.938;2023-03-01T08:00:03;55.84;41.31;72.51;;
72160;Laerm;60045;51.792;10.938;2023-03-01T08:02:30;63.26;41.26;77.88;;
72160;Laerm;60045;51.792;10.938;2023-03-01T08:04:56;66.02;36.37;84.20;;
72160;Laerm;60045;51.792;10.938;2023-03-01T08:07:24;65.37;44.09;78.37;;
72160;Laerm;60045;51.792;10.938;2023-03-01T08:09:50;64.13;40.07;79.07;;
72160;Laerm;60045;51.792;10.938;2023-03-01T08:12:16;65.05;39.95;82.17;;
72160;Laerm;60045;51.792;10.938;2023-03-01T08:14:42;63.26;39.99;74.68;;
72160;Laerm;60045;51.792;10.938;2023-03-01T08:17:09;56.89;37.33;71.84;;
72160;Laerm;60045;51.792;10.938;2023-03-01T08:19:35;63.00;40.11;79.17;;
72160;Laerm;60045;51.792;10.938;2023-03-01T08:22:01;64.21;41.91;79.63;;
72160;Laerm;60045;51.792;10.938;2023-03-01T08:24:29;63.25;33.56;76.53;;
72160;Laerm;60045;51.792;10.938;2023-03-01T08:26:55;59.77;38.54;72.70;;
72160;Laerm;60045;51.792;10.938;2023-03-01T08:29:22;61.14;38.15;76.04;;
72160;Laerm;60045;51.792;10.938;2023-03-01T08:31:49;61.87;44.50;73.00;;
72160;Laerm;60045;51.792;10.938;2023-03-01T08:34:16;56.77;43.85;72.56;;
72160;Laerm;60045;51.792;10.938;2023-03-01T08:36:43;63.79;45.65;77.91;;
72160;Laerm;60045;51.792;10.938;2023-03-01T08:39:10;65.61;41.23;83.46;;
72160;Laerm;60045;51.792;10.938;2023-03-01T08:41:38;60.64;44.52;73.46;;
72160;Laerm;60045;51.792;10.938;2023-03-01T08:44:04;58.95;43.55;72.71;;
72160;Laerm;60045;51.792;10.938;2023-03-01T08:46:31;61.85;44.30;75.31;;
72160;Laerm;60045;51.792;10.938;2023-03-01T08:48:58;66.17;38.57;81.29;;
72160;Laerm;60045;51.792;10.938;2023-03-01T08:51:24;62.23;42.45;74.40;;
72160;Laerm;60045;51.792;10.938;2023-03-01T08:53:51;54.35;43.35;77.38;;
72160;Laerm;60045;51.792;10.938;2023-03-01T08:56:17;64.72;44.97;78.58;;
72160;Laerm;60045;51.792;10.938;2023-03-01T08:58:46;57.01;43.85;71.74;;
72160;Laerm;60045;51.792;10.938;2023-03-01T09:01:13;67.37;46.14;80.44;;
72160;Laerm;60045;51.792;10.938;2023-03-01T09:03:40;62.31;44.80;76.68;;
72160;Laerm;60045;51.792;10.938;2023-03-01T09:06:06;60.55;41.75;72.47;;
72160;Laerm;60045;51.792;10.938;2023-03-01T09:08:34;61.22;44.95;76.14;;
72160;Laerm;60045;51.792;10.938;2023-03-01T09:11:00;62.55;37.80;73.32;;
72160;Laerm;60045;51.792;10.938;2023-03-01T09:13:27;63.81;44.32;79.37;;
72160;Laerm;60045;51.792;10.938;2023-03-01T09:15:57;61.99;43.78;75.29;;
72160;Laerm;60045;51.792;10.938;2023-03-01T09:18:23;62.16;42.57;80.32;;
72160;Laerm;60045;51.792;10.938;2023-03-01T09:20:49;60.78;45.98;74.70;;
72160;Laerm;60045;51.792;10.938;2023-03-01T09:23:15;63.68;45.01;77.66;;
72160;Laerm;60045;51.792;10.938;2023-03-01T09:25:42;62.01;42.83;77.82;;
72160;Laerm;60045;51.792;10.938;2023-03-01T09:28:08;64.68;44.34;78.63;;
72160;Laerm;60045;51.792;10.938;2023-03-01T09:30:35;61.61;44.29;81.19;;
72160;Laerm;60045;51.792;10.938;2023-03-01T09:33:03;62.11;38.97;75.52;;
72160;Laerm;60045;51.792;10.938;2023-03-01T09:35:29;62.92;43.15;79.06;;
72160;Laerm;60045;51.792;10.938;2023-03-01T09:37:56;67.08;41.04;81.63;;
72160;Laerm;60045;51.792;10.938;2023-03-01T09:40:23;61.69;34.76;76.41;;
72160;Laerm;60045;51.792;10.938;2023-03-01T09:42:52;62.22;34.59;76.83;;
72160;Laerm;60045;51.792;10.938;2023-03-01T09:45:23;62.33;33.55;78.03;;
72160;Laerm;60045;51.792;10.938;2023-03-01T09:47:51;58.05;34.76;73.44;;
72160;Laerm;60045;51.792;10.938;2023-03-01T09:50:19;59.79;35.90;74.24;;
72160;Laerm;60045;51.792;10.938;2023-03-01T09:52:46;59.50;35.38;72.62;;
72160;Laerm;60045;51.792;10.938;2023-03-01T09:55:15;63.58;35.18;78.69;;
72160;Laerm;60045;51.792;10.938;2023-03-01T09:57:43;62.45;38.74;76.73;;
72160;Laerm;60045;51.792;10.938;2023-03-01T10:00:17;63.90;35.91;80.54;;
72160;Laerm;60045;51.792;10.938;2023-03-01T10:02:47;60.74;36.60;80.64;;
72160;Laerm;60045;51.792;10.938;2023-03-01T10:05:27;60.10;36.00;77.06;;
72160;Laerm;60045;51.792;10.938;2023-03-01T10:07:58;62.97;41.75;79.98;;
72160;Laerm;60045;51.792;10.938;2023-03-01T10:10:28;61.30;42.53;74.62;;
72160;Laerm;60045;51.792;10.938;2023-03-01T10:12:54;66.84;42.80;80.32;;
72160;Laerm;60045;51.792;10.938;2023-03-01T10:15:22;60.06;42.85;74.09;;
72160;Laerm;60045;51.792;10.938;2023-03-01T10:17:51;65.95;43.88;83.92;;
72160;Laerm;60045;51.792;10.938;2023-03-01T10:20:20;64.04;42.38;80.32;;
72160;Laerm;60045;51.792;10.938;2023-03-01T10:22:48;65.17;43.94;77.84;;
72160;Laerm;60045;51.792;10.938;2023-03-01T10:25:19;59.76;42.08;74.49;;
72160;Laerm;60045;51.792;10.938;2023-03-01T10:27:52;58.19;42.24;71.08;;
72160;Laerm;60045;51.792;10.938;2023-03-01T10:30:19;65.64;45.60;82.86;;
72160;Laerm;60045;51.792;10.938;2023-03-01T10:32:46;59.85;41.44;71.86;;
72160;Laerm;60045;51.792;10.938;2023-03-01T10:35:15;62.65;41.36;77.98;;
72160;Laerm;60045;51.792;10.938;2023-03-01T10:37:46;62.44;37.83;75.44;;
72160;Laerm;60045;51.792;10.938;2023-03-01T10:40:23;59.91;38.56;74.39;;
72160;Laerm;60045;51.792;10.938;2023-03-01T10:42:49;64.07;45.01;77.60;;
72160;Laerm;60045;51.792;10.938;2023-03-01T10:45:17;55.99;38.26;67.60;;
72160;Laerm;60045;51.792;10.938;2023-03-01T10:47:43;59.29;36.02;73.73;;
72160;Laerm;60045;51.792;10.938;2023-03-01T10:50:17;58.63;45.42;72.99;;
72160;Laerm;60045;51.792;10.938;2023-03-01T10:52:47;58.43;35.02;81.02;;
72160;Laerm;60045;51.792;10.938;2023-03-01T10:55:24;57.80;39.10;70.60;;
72160;Laerm;60045;51.792;10.938;2023-03-01T10:57:58;65.31;41.39;87.48;;
72160;Laerm;60045;51.792;10.938;2023-03-01T11:00:31;66.44;38.87;82.06;;
72160;Laerm;60045;51.792;10.938;2023-03-01T11:03:10;56.40;41.02;69.95;;
72160;Laerm;60045;51.792;10.938;2023-03-01T11:05:37;60.60;46.21;74.25;;
72160;Laerm;60045;51.792;10.938;2023-03-01T11:08:26;59.00;47.21;72.54;;
72160;Laerm;60045;51.792;10.938;2023-03-01T11:11:02;58.67;38.24;72.54;;
72160;Laerm;60045;51.792;10.938;2023-03-01T11:13:29;62.34;33.03;78.83;;
72160;Laerm;60045;51.792;10.938;2023-03-01T11:15:59;63.73;34.15;80.48;;
72160;Laerm;60045;51.792;10.938;2023-03-01T11:18:25;63.98;39.19;82.45;;
72160;Laerm;60045;51.792;10.938;2023-03-01T11:20:53;57.54;37.09;73.57;;
72160;Laerm;60045;51.792;10.938;2023-03-01T11:23:20;66.82;42.16;82.86;;
72160;Laerm;60045;51.792;10.938;2023-03-01T11:25:50;56.91;36.50;71.34;;
72160;Laerm;60045;51.792;10.938;2023-03-01T11:28:19;64.04;38.38;78.58;;
72160;Laerm;60045;51.792;10.938;2023-03-01T11:30:47;55.21;33.70;73.40;;
72160;Laerm;60045;51.792;10.938;2023-03-01T11:33:16;61.57;36.29;74.76;;
72160;Laerm;60045;51.792;10.938;2023-03-01T11:35:45;64.29;37.43;82.97;;
72160;Laerm;60045;51.792;10.938;2023-03-01T11:38:20;63.23;35.87;81.47;;
72160;Laerm;60045;51.792;10.938;2023-03-01T11:40:48;52.61;32.91;68.14;;
72160;Laerm;60045;51.792;10.938;2023-03-01T11:43:19;55.02;31.40;75.54;;
72160;Laerm;60045;51.792;10.938;2023-03-01T11:45:51;59.69;31.94;73.48;;
72160;Laerm;60045;51.792;10.938;2023-03-01T11:48:33;64.06;33.24;81.53;;
72160;Laerm;60045;51.792;10.938;2023-03-01T11:51:05;64.53;35.53;80.93;;
72160;Laerm;60045;51.792;10.938;2023-03-01T11:53:39;58.48;35.33;75.78;;
72160;Laerm;60045;51.792;10.938;2023-03-01T11:56:13;63.00;36.15;81.89;;
72160;Laerm;60045;51.792;10.938;2023-03-01T11:58:49;60.76;33.53;77.01;;
72160;Laerm;60045;51.792;10.938;2023-03-01T12:01:32;61.00;35.67;78.85;;
72160;Laerm;60045;51.792;10.938;2023-03-01T12:04:09;62.35;34.82;76.46;;
72160;Laerm;60045;51.792;10.938;2023-03-01T12:09:38;63.91;42.25;79.09;;
72160;Laerm;60045;51.792;10.938;2023-03-01T12:12:08;62.06;37.40;73.40;;
72160;Laerm;60045;51.792;10.938;2023-03-01T12:20:05;65.00;34.64;79.62;;
72160;Laerm;60045;51.792;10.938;2023-03-01T12:22:37;57.84;32.58;72.17;;
72160;Laerm;60045;51.792;10.938;2023-03-01T12:25:20;63.34;37.80;80.80;;
72160;Laerm;60045;51.792;10.938;2023-03-01T12:28:01;62.90;37.11;77.54;;
72160;Laerm;60045;51.792;10.938;2023-03-01T12:30:33;62.15;34.49;78.28;;
72160;Laerm;60045;51.792;10.938;2023-03-01T12:33:07;62.35;36.60;77.80;;
72160;Laerm;60045;51.792;10.938;2023-03-01T12:35:49;65.14;38.80;79.60;;
72160;Laerm;60045;51.792;10.938;2023-03-01T12:38:22;61.56;38.80;75.09;;
72160;Laerm;60045;51.792;10.938;2023-03-01T12:41:01;60.63;37.74;73.41;;
72160;Laerm;60045;51.792;10.938;2023-03-01T12:43:36;62.55;34.64;79.42;;
72160;Laerm;60045;51.792;10.938;2023-03-01T12:46:10;60.33;35.03;73.05;;
72160;Laerm;60045;51.792;10.938;2023-03-01T12:48:43;60.46;35.23;72.63;;
72160;Laerm;60045;51.792;10.938;2023-03-01T12:51:13;61.80;33.75;79.75;;
72160;Laerm;60045;51.792;10.938;2023-03-01T12:53:41;55.42;31.70;69.31;;
72160;Laerm;60045;51.792;10.938;2023-03-01T12:56:09;57.12;32.05;73.10;;
72160;Laerm;60045;51.792;10.938;2023-03-01T12:58:39;64.72;34.73;78.34;;
72160;Laerm;60045;51.792;10.938;2023-03-01T13:01:14;61.74;34.14;74.59;;
72160;Laerm;60045;51.792;10.938;2023-03-01T13:03:52;61.78;31.55;79.08;;
72160;Laerm;60045;51.792;10.938;2023-03-01T13:06:25;60.68;34.28;74.86;;
72160;Laerm;60045;51.792;10.938;2023-03-01T13:08:56;58.38;32.49;72.50;;
72160;Laerm;60045;51.792;10.938;2023-03-01T13:11:25;57.52;32.31;71.84;;
72160;Laerm;60045;51.792;10.938;2023-03-01T13:13:51;61.74;32.71;75.29;;
72160;Laerm;60045;51.792;10.938;2023-03-01T13:16:20;52.96;31.81;68.38;;
72160;Laerm;60045;51.792;10.938;2023-03-01T13:18:47;65.06;34.12;82.11;;
72160;Laerm;60045;51.792;10.938;2023-03-01T13:21:13;61.81;35.83;75.79;;
72160;Laerm;60045;51.792;10.938;2023-03-01T13:23:56;64.99;34.45;84.56;;
72160;Laerm;60045;51.792;10.938;2023-03-01T13:26:22;62.15;36.64;79.97;;
72160;Laerm;60045;51.792;10.938;2023-03-01T13:28:49;62.36;37.81;79.20;;
72160;Laerm;60045;51.792;10.938;2023-03-01T13:34:01;61.70;35.51;73.30;;
72160;Laerm;60045;51.792;10.938;2023-03-01T13:36:47;60.87;34.81;74.25;;
72160;Laerm;60045;51.792;10.938;2023-03-01T13:41:58;59.87;33.37;74.33;;
72160;Laerm;60045;51.792;10.938;2023-03-01T13:44:26;57.82;31.84;72.47;;
72160;Laerm;60045;51.792;10.938;2023-03-01T13:46:56;60.29;34.32;75.95;;
72160;Laerm;60045;51.792;10.938;2023-03-01T13:49:25;62.86;38.24;76.47;;
72160;Laerm;60045;51.792;10.938;2023-03-01T13:51:52;57.93;32.99;73.04;;
72160;Laerm;60045;51.792;10.938;2023-03-01T13:54:20;61.54;33.97;75.32;;
72160;Laerm;60045;51.792;10.938;2023-03-01T13:56:48;58.70;34.81;74.46;;